Time;durP1;ratioP1;P1;durP2;ratioP2;P2;SDS_P1;SDS_P2;PMS_P1;PMS_P2;Temp;Humidity;BMP_temperature;BMP_pressure;BME280_temperature;BME280_humidity;BME280_pressure;Samples;Min_cycle;Max_cycle;Signal;HPM_P1;HPM_P2
2024/02/07 00:01:27;;;;;;;0.88;0.88;;;;;;;7.08;69.49;98293.16;4962035;28;20055;-91
2024/02/07 00:03:54;;;;;;;0.82;0.82;;;;;;;7.08;69.46;98280.78;4970213;28;20034;-92
2024/02/07 00:06:20;;;;;;;0.90;0.90;;;;;;;7.02;69.35;98282.34;4977421;28;20089;-92
2024/02/07 00:08:45;;;;;;;0.80;0.80;;;;;;;7.06;69.24;98279.84;4969329;28;20472;-91
2024/02/07 00:11:12;;;;;;;0.90;0.90;;;;;;;7.13;68.71;98281.84;4975396;28;20034;-91
2024/02/07 00:13:38;;;;;;;0.90;0.90;;;;;;;7.13;68.85;98278.28;4984400;28;20595;-91
2024/02/07 00:16:04;;;;;;;0.82;0.82;;;;;;;7.19;67.99;98265.28;4987250;28;20115;-91
2024/02/07 00:18:30;;;;;;;0.90;0.90;;;;;;;7.32;67.87;98269.22;4977667;28;20026;-90
2024/02/07 00:20:56;;;;;;;0.90;0.90;;;;;;;7.27;67.92;98270.81;4963139;28;20112;-91
2024/02/07 00:23:21;;;;;;;0.90;0.90;;;;;;;7.31;67.62;98257.72;4958781;28;20042;-91
2024/02/07 00:25:47;;;;;;;0.90;0.90;;;;;;;7.26;67.88;98261.06;4981678;28;20031;-91
2024/02/07 00:28:12;;;;;;;0.80;0.80;;;;;;;7.23;68.12;98255.66;4976863;28;20065;-90
2024/02/07 00:30:38;;;;;;;0.80;0.80;;;;;;;7.30;67.97;98250.63;4971456;28;20636;-90
2024/02/07 00:33:04;;;;;;;0.80;0.80;;;;;;;7.31;67.61;98252.41;4982338;28;20464;-91
2024/02/07 00:35:31;;;;;;;0.70;0.70;;;;;;;7.28;67.88;98249.66;4989963;28;20053;-91
2024/02/07 00:37:57;;;;;;;0.90;0.90;;;;;;;7.33;68.04;98247.16;4989017;28;20050;-90
2024/02/07 00:40:22;;;;;;;0.90;0.90;;;;;;;7.36;67.70;98245.50;4994111;28;20065;-90
2024/02/07 00:42:49;;;;;;;0.80;0.80;;;;;;;7.40;67.55;98250.06;5026336;23;20106;-89
2024/02/07 00:45:15;;;;;;;0.90;0.90;;;;;;;7.37;67.55;98241.09;4930666;29;20025;-91
2024/02/07 00:47:40;;;;;;;0.80;0.80;;;;;;;7.37;67.36;98244.66;4930037;28;20889;-89
2024/02/07 00:50:06;;;;;;;0.80;0.80;;;;;;;7.33;67.82;98223.25;4924681;28;20051;-90
2024/02/07 00:52:32;;;;;;;0.88;0.88;;;;;;;7.33;67.69;98229.50;4913290;28;20036;-90
2024/02/07 00:54:57;;;;;;;0.80;0.80;;;;;;;7.43;67.21;98226.31;4939502;28;20040;-91
2024/02/07 00:57:23;;;;;;;0.80;0.80;;;;;;;7.37;67.59;98225.16;4931264;29;20025;-90
2024/02/07 00:59:48;;;;;;;0.90;0.90;;;;;;;7.31;67.38;98223.22;4922476;28;20024;-90
2024/02/07 01:02:14;;;;;;;0.80;0.80;;;;;;;7.32;67.84;98237.38;4932099;28;20035;-90
2024/02/07 01:04:40;;;;;;;0.73;0.73;;;;;;;7.30;67.98;98228.50;4920607;28;20044;-89
2024/02/07 01:07:07;;;;;;;0.80;0.80;;;;;;;7.35;67.73;98233.09;4907586;29;20108;-90
2024/02/07 01:09:34;;;;;;;0.88;0.88;;;;;;;7.31;67.83;98224.97;4904108;28;20036;-92
2024/02/07 01:12:00;;;;;;;;;;;;;;;7.34;67.78;98226.00;4919542;29;20059;-90
2024/02/07 01:14:26;;;;;;;0.80;0.80;;;;;;;7.30;67.91;98232.03;4932278;28;19957;-90
2024/02/07 01:16:52;;;;;;;0.80;0.80;;;;;;;7.31;67.98;98222.31;4916123;29;20110;-90
2024/02/07 01:19:18;;;;;;;0.80;0.80;;;;;;;7.30;67.75;98209.91;4933359;28;20359;-91
2024/02/07 01:21:43;;;;;;;0.80;0.80;;;;;;;7.36;67.48;98205.69;4913623;28;20032;-91
2024/02/07 01:24:10;;;;;;;0.80;0.80;;;;;;;7.34;67.62;98209.16;4924235;28;20047;-90
2024/02/07 01:26:36;;;;;;;0.80;0.80;;;;;;;7.25;68.00;98201.78;4902320;28;20047;-91
2024/02/07 01:29:02;;;;;;;0.80;0.80;;;;;;;7.19;68.16;98194.53;4911880;28;20036;-90
2024/02/07 01:31:28;;;;;;;0.80;0.80;;;;;;;7.29;68.04;98193.09;4911066;29;20033;-90
2024/02/07 01:33:55;;;;;;;0.80;0.80;;;;;;;7.29;67.99;98189.53;4907463;28;20571;-90
2024/02/07 01:36:22;;;;;;;0.80;0.80;;;;;;;7.30;68.33;98196.66;4923784;28;20064;-90
2024/02/07 01:38:49;;;;;;;0.80;0.80;;;;;;;7.31;68.21;98191.38;4910580;28;20040;-90
2024/02/07 01:41:15;;;;;;;0.80;0.80;;;;;;;7.37;68.10;98186.25;4904233;28;20037;-90
2024/02/07 01:43:41;;;;;;;0.90;0.90;;;;;;;7.36;67.91;98189.78;4919460;28;20034;-90
2024/02/07 01:46:07;;;;;;;0.80;0.80;;;;;;;7.32;68.27;98179.91;4896535;28;20056;-90
2024/02/07 01:48:34;;;;;;;0.80;0.80;;;;;;;7.30;68.34;98171.00;4939395;28;20034;-90
2024/02/07 01:51:03;;;;;;;0.73;0.73;;;;;;;7.36;68.09;98165.88;4910528;28;20033;-90
2024/02/07 01:53:30;;;;;;;0.80;0.80;;;;;;;7.34;68.59;98166.72;4902565;28;20050;-90
2024/02/07 01:55:56;;;;;;;0.90;0.90;;;;;;;7.39;68.05;98159.81;4934350;28;20040;-90
2024/02/07 01:58:26;;;;;;;0.73;0.73;;;;;;;7.36;68.45;98165.00;4908622;28;20082;-90
2024/02/07 02:00:51;;;;;;;0.80;0.80;;;;;;;7.36;68.37;98162.34;4925370;28;20036;-90
2024/02/07 02:03:17;;;;;;;0.80;0.80;;;;;;;7.35;68.30;98164.09;4897196;28;20042;-89
2024/02/07 02:05:44;;;;;;;0.80;0.80;;;;;;;7.33;68.65;98168.47;4913033;28;20047;-90
2024/02/07 02:08:10;;;;;;;0.80;0.80;;;;;;;7.39;68.19;98152.75;4911670;28;20036;-90
2024/02/07 02:10:36;;;;;;;0.90;0.90;;;;;;;7.48;68.30;98151.25;4925612;28;20190;-90
2024/02/07 02:13:02;;;;;;;0.80;0.80;;;;;;;7.36;68.55;98136.69;4914620;28;20454;-90
2024/02/07 02:15:29;;;;;;;0.85;0.85;;;;;;;7.45;68.35;98137.00;4921700;28;20036;-90
2024/02/07 02:17:56;;;;;;;0.80;0.80;;;;;;;7.43;68.47;98122.78;4908686;28;20041;-91
2024/02/07 02:20:22;;;;;;;0.75;0.75;;;;;;;7.43;68.43;98128.09;4894597;28;20024;-91
2024/02/07 02:23:32;;;;;;;0.80;0.80;;;;;;;7.41;68.80;98127.13;4975094;28;20040;-90
2024/02/07 02:26:07;;;;;;;0.90;0.90;;;;;;;7.52;68.44;98130.16;4909448;28;20054;-90
2024/02/07 02:29:14;;;;;;;0.80;0.80;;;;;;;7.46;68.67;98122.88;4910840;28;20670;-92
2024/02/07 02:31:46;;;;;;;0.90;0.90;;;;;;;7.51;68.60;98119.47;4910411;28;20063;-91
2024/02/07 02:34:12;;;;;;;0.70;0.70;;;;;;;7.49;68.78;98115.88;4897343;28;20040;-90
2024/02/07 02:36:38;;;;;;;0.80;0.80;;;;;;;7.43;68.90;98114.84;4915596;28;20036;-90
2024/02/07 02:39:05;;;;;;;0.80;0.80;;;;;;;7.45;68.77;98114.88;4903562;28;20040;-90
2024/02/07 02:41:32;;;;;;;0.82;0.82;;;;;;;7.46;68.64;98114.00;4918283;28;20540;-91
2024/02/07 02:43:58;;;;;;;0.90;0.90;;;;;;;7.44;68.86;98106.00;4924333;28;20040;-91
2024/02/07 02:46:23;;;;;;;0.90;0.90;;;;;;;7.55;68.37;98098.38;4918932;28;20071;-90
2024/02/07 02:48:50;;;;;;;0.90;0.90;;;;;;;7.55;68.58;98090.41;4908629;28;20410;-90
2024/02/07 02:51:16;;;;;;;0.90;0.90;;;;;;;7.52;68.60;98073.47;4920634;28;20057;-90
2024/02/07 02:53:43;;;;;;;0.80;0.80;;;;;;;7.44;68.71;98068.84;4913712;28;20067;-90
2024/02/07 02:56:09;;;;;;;0.70;0.70;;;;;;;7.34;69.37;98053.50;4977743;28;20047;-91
2024/02/07 02:58:35;;;;;;;0.80;0.80;;;;;;;7.32;69.21;98064.91;4895325;28;20044;-91
2024/02/07 03:01:03;;;;;;;0.80;0.80;;;;;;;7.35;69.58;98047.34;4929120;28;20032;-90
2024/02/07 03:03:31;;;;;;;0.90;0.90;;;;;;;7.34;69.38;98044.66;4935009;28;20400;-90
2024/02/07 03:05:58;;;;;;;;;;;;;;;7.33;69.50;98050.78;4928898;28;20036;-91
2024/02/07 03:08:53;;;;;;;0.80;0.80;;;;;;;7.22;70.18;98041.59;4898225;28;20415;-91
2024/02/07 03:11:21;;;;;;;0.90;0.90;;;;;;;7.24;69.60;98043.47;4907297;28;20069;-90
2024/02/07 03:13:46;;;;;;;0.90;0.90;;;;;;;7.20;69.94;98039.81;4896734;28;20127;-90
2024/02/07 03:16:15;;;;;;;0.90;0.90;;;;;;;7.23;70.12;98043.41;4921797;28;20080;-91
2024/02/07 03:18:41;;;;;;;0.90;0.90;;;;;;;7.27;69.95;98040.88;4894735;28;20438;-90
2024/02/07 03:21:06;;;;;;;0.90;0.90;;;;;;;7.30;69.92;98040.09;4921134;28;20094;-89
2024/02/07 03:23:32;;;;;;;0.82;0.82;;;;;;;7.28;69.77;98037.41;4921445;28;20030;-89
2024/02/07 03:26:00;;;;;;;0.90;0.90;;;;;;;7.28;69.78;98032.09;4916301;28;20071;-89
2024/02/07 03:28:26;;;;;;;0.90;0.90;;;;;;;7.23;70.16;98023.06;4913766;28;20052;-89
2024/02/07 03:30:53;;;;;;;0.90;0.90;;;;;;;7.27;70.13;98024.06;4921446;28;20047;-90
2024/02/07 03:33:19;;;;;;;0.90;0.90;;;;;;;7.31;69.78;98024.22;4981334;28;20405;-90
2024/02/07 03:35:45;;;;;;;0.90;0.90;;;;;;;7.36;70.07;98022.59;4873700;28;20171;-90
2024/02/07 03:38:12;;;;;;;0.90;0.90;;;;;;;7.32;70.04;98023.34;4895116;28;20075;-91
2024/02/07 03:40:37;;;;;;;0.80;0.80;;;;;;;7.33;70.28;98019.88;4896427;28;20052;-90
2024/02/07 03:43:03;;;;;;;0.85;0.85;;;;;;;7.42;70.02;98017.47;4894310;28;20493;-90
2024/02/07 03:45:32;;;;;;;0.80;0.80;;;;;;;7.51;69.92;98018.59;4897118;28;20032;-90
2024/02/07 03:47:58;;;;;;;0.80;0.80;;;;;;;7.52;70.03;97999.16;4929281;28;20036;-91
2024/02/07 03:50:27;;;;;;;0.80;0.80;;;;;;;7.53;69.78;98001.00;4937832;28;20031;-90
2024/02/07 03:52:55;;;;;;;0.80;0.80;;;;;;;7.55;69.62;98001.91;4924030;28;20036;-90
2024/02/07 03:55:20;;;;;;;0.80;0.80;;;;;;;7.58;69.62;98002.03;4922434;28;20044;-91
2024/02/07 03:57:48;;;;;;;0.80;0.80;;;;;;;7.50;69.87;98001.78;4909312;28;20753;-90
2024/02/07 04:00:14;;;;;;;0.90;0.90;;;;;;;7.57;69.75;97995.81;4911947;28;20051;-90
2024/02/07 04:02:41;;;;;;;0.85;0.85;;;;;;;7.56;69.72;97991.34;4926455;28;20047;-92
2024/02/07 04:05:08;;;;;;;0.80;0.80;;;;;;;7.52;69.94;98001.81;4897282;28;20048;-91
2024/02/07 04:07:35;;;;;;;0.80;0.80;;;;;;;7.56;70.23;97995.75;4910712;28;20143;-90
2024/02/07 04:10:02;;;;;;;0.85;0.85;;;;;;;7.54;70.03;97994.81;4914870;28;20115;-91
2024/02/07 05:17:26;;;;;;;0.80;0.80;;;;;;;8.03;70.17;97941.28;4917354;28;20391;-89
2024/02/07 05:19:54;;;;;;;0.70;0.70;;;;;;;8.06;70.00;97935.19;4929350;28;20441;-90
2024/02/07 05:22:31;;;;;;;0.80;0.80;;;;;;;8.01;70.15;97934.16;4915708;28;20083;-91
2024/02/07 05:25:02;;;;;;;0.70;0.70;;;;;;;7.95;70.20;97929.56;4907449;29;20106;-91
2024/02/07 05:27:32;;;;;;;0.70;0.70;;;;;;;8.00;70.17;97933.28;4929445;28;20570;-90
2024/02/07 05:29:57;;;;;;;;;;;;;;;8.04;69.89;97931.56;4913009;28;20042;-91
2024/02/07 05:32:23;;;;;;;0.75;0.75;;;;;;;8.02;70.12;97922.66;4915149;28;19945;-91
2024/02/07 05:34:49;;;;;;;0.80;0.80;;;;;;;8.03;70.33;97919.16;4902224;28;20044;-90
2024/02/07 05:37:14;;;;;;;0.75;0.75;;;;;;;8.08;70.03;97914.84;4919875;28;20099;-90
2024/02/07 05:39:40;;;;;;;0.80;0.80;;;;;;;8.08;70.12;97921.06;4916018;28;20054;-90
2024/02/07 05:42:06;;;;;;;0.80;0.80;;;;;;;8.04;69.91;97911.22;4930030;28;20143;-92
2024/02/07 05:44:31;;;;;;;0.80;0.80;;;;;;;8.10;70.28;97914.03;4942913;28;20032;-90
2024/02/07 05:46:57;;;;;;;0.70;0.70;;;;;;;8.14;70.13;97913.25;4919477;28;20058;-91
2024/02/07 05:49:25;;;;;;;0.80;0.80;;;;;;;8.09;70.06;97900.69;4923849;28;20040;-90
2024/02/07 05:51:59;;;;;;;0.73;0.73;;;;;;;8.05;70.23;97888.19;4925917;28;20020;-91
2024/02/07 05:54:25;;;;;;;0.80;0.80;;;;;;;8.07;70.27;97894.47;4947905;28;20063;-90
2024/02/07 05:56:51;;;;;;;0.70;0.70;;;;;;;8.06;70.44;97892.69;4914931;28;20020;-90
2024/02/07 05:59:19;;;;;;;0.73;0.73;;;;;;;8.19;70.07;97897.41;4933195;28;20047;-90
2024/02/07 06:01:50;;;;;;;0.80;0.80;;;;;;;8.14;69.97;97901.72;4931920;28;20024;-90
2024/02/07 06:04:17;;;;;;;0.80;0.80;;;;;;;8.19;69.62;97906.31;4917170;28;20082;-90
2024/02/07 06:06:45;;;;;;;0.80;0.80;;;;;;;8.21;69.91;97898.38;4922483;28;20052;-91
2024/02/07 06:09:14;;;;;;;0.80;0.80;;;;;;;8.25;69.88;97892.28;4927144;28;20044;-90
2024/02/07 06:11:42;;;;;;;0.80;0.80;;;;;;;8.21;69.78;97893.06;4903159;28;20174;-90
2024/02/07 06:14:09;;;;;;;0.73;0.73;;;;;;;8.15;70.10;97888.50;4909576;28;20032;-90
2024/02/07 06:16:35;;;;;;;0.90;0.90;;;;;;;8.16;70.16;97890.28;4901875;28;20504;-90
2024/02/07 06:19:00;;;;;;;0.80;0.80;;;;;;;8.13;70.17;97883.97;4903641;29;20029;-89
2024/02/07 06:21:27;;;;;;;0.90;0.90;;;;;;;8.18;70.20;97879.69;4895474;28;20044;-90
2024/02/07 06:23:53;;;;;;;0.70;0.70;;;;;;;8.17;70.35;97875.22;4909032;28;20036;-89
2024/02/07 06:26:18;;;;;;;0.80;0.80;;;;;;;8.15;70.46;97877.88;4915460;28;20048;-90
2024/02/07 06:28:55;;;;;;;0.80;0.80;;;;;;;8.11;70.27;97872.44;4900463;29;20036;-89
2024/02/07 06:31:21;;;;;;;0.88;0.88;;;;;;;8.23;70.15;97892.22;4890743;28;20043;-90
2024/02/07 06:33:50;;;;;;;0.80;0.80;;;;;;;8.13;70.51;97871.59;4895143;28;20032;-90
2024/02/07 06:36:18;;;;;;;0.73;0.73;;;;;;;8.15;70.03;97861.94;4900672;29;20055;-91
2024/02/07 06:38:52;;;;;;;0.70;0.70;;;;;;;8.27;69.95;97868.38;4881408;29;20035;-90
2024/02/07 06:41:20;;;;;;;0.80;0.80;;;;;;;8.28;69.82;97872.84;4914684;28;20148;-89
2024/02/07 06:43:48;;;;;;;0.80;0.80;;;;;;;8.30;69.60;97885.31;4904742;28;20033;-91
2024/02/07 06:46:17;;;;;;;0.70;0.70;;;;;;;8.35;69.85;97870.38;4921053;28;20033;-91
2024/02/07 06:48:42;;;;;;;0.80;0.80;;;;;;;8.30;69.92;97871.13;4944335;28;20032;-90
2024/02/07 06:51:08;;;;;;;0.70;0.70;;;;;;;8.33;69.73;97877.38;4918443;28;20044;-91
2024/02/07 06:53:33;;;;;;;0.80;0.80;;;;;;;8.41;69.46;97878.53;4908426;28;20047;-91
2024/02/07 06:55:59;;;;;;;0.70;0.70;;;;;;;8.34;69.67;97878.31;4916722;28;20036;-90
2024/02/07 06:58:24;;;;;;;0.70;0.70;;;;;;;8.38;69.77;97874.88;4902468;28;20048;-90
2024/02/07 07:00:50;;;;;;;0.80;0.80;;;;;;;8.41;69.70;97881.19;4920927;28;20048;-90
2024/02/07 07:03:15;;;;;;;0.70;0.70;;;;;;;8.43;69.35;97879.47;4939543;28;20036;-90
2024/02/07 07:05:41;;;;;;;0.80;0.80;;;;;;;8.50;69.21;97882.25;4912883;28;20012;-90
2024/02/07 07:08:06;;;;;;;0.80;0.80;;;;;;;8.54;69.16;97852.22;4935983;28;20040;-91
2024/02/07 07:10:32;;;;;;;0.80;0.80;;;;;;;8.62;68.88;97863.91;4931885;28;20039;-91
2024/02/07 07:12:57;;;;;;;0.80;0.80;;;;;;;8.60;68.75;97871.88;4932869;28;20034;-91
2024/02/07 07:15:22;;;;;;;0.75;0.75;;;;;;;8.64;68.60;97862.22;4939615;28;20039;-92
2024/02/07 07:17:48;;;;;;;0.80;0.80;;;;;;;8.55;68.86;97862.91;4931436;28;20063;-93
2024/02/07 07:20:13;;;;;;;0.80;0.80;;;;;;;8.56;69.09;97863.78;4907254;28;20047;-93
2024/02/07 07:22:39;;;;;;;0.70;0.70;;;;;;;8.61;68.89;97859.47;4898975;29;20036;-91
2024/02/07 07:25:05;;;;;;;0.70;0.70;;;;;;;8.67;68.58;97857.88;4917490;28;20040;-91
2024/02/07 07:27:31;;;;;;;0.80;0.80;;;;;;;8.61;68.75;97859.47;4901889;28;20032;-91
2024/02/07 07:29:56;;;;;;;0.80;0.80;;;;;;;8.62;68.85;97862.16;4926989;28;20051;-91
2024/02/07 07:32:25;;;;;;;0.70;0.70;;;;;;;8.66;68.15;97848.06;4900437;28;20175;-91
2024/02/07 07:34:53;;;;;;;0.70;0.70;;;;;;;8.69;68.12;97856.13;4915254;28;20040;-91
2024/02/07 07:37:41;;;;;;;0.80;0.80;;;;;;;8.75;67.65;97850.03;4915012;28;20039;-91
2024/02/07 07:40:10;;;;;;;0.80;0.80;;;;;;;8.82;67.36;97851.09;4915167;28;20055;-91
2024/02/07 07:42:37;;;;;;;0.80;0.80;;;;;;;8.93;67.08;97830.94;4911197;28;20044;-91
2024/02/07 07:45:03;;;;;;;0.80;0.80;;;;;;;8.94;67.10;97838.94;4903010;28;20028;-92
2024/02/07 07:47:30;;;;;;;0.85;0.85;;;;;;;8.99;67.02;97850.56;4923121;28;20135;-91
2024/02/07 07:49:56;;;;;;;0.73;0.73;;;;;;;9.04;66.78;97848.00;4899095;29;20032;-91
2024/02/07 07:52:21;;;;;;;0.80;0.80;;;;;;;8.97;66.51;97832.78;5012630;28;20045;-91
2024/02/07 07:54:47;;;;;;;0.70;0.70;;;;;;;9.12;66.00;97849.06;4904447;28;20040;-91
2024/02/07 07:57:12;;;;;;;0.70;0.70;;;;;;;9.13;66.18;97847.31;4914900;28;20021;-91
2024/02/07 07:59:38;;;;;;;0.80;0.80;;;;;;;9.23;65.78;97843.97;4919977;28;20433;-91
2024/02/07 08:02:03;;;;;;;0.80;0.80;;;;;;;9.19;65.93;97845.66;4899755;28;20040;-90
2024/02/07 08:04:29;;;;;;;0.70;0.70;;;;;;;9.31;65.45;97849.44;4924508;28;20072;-91
2024/02/07 08:06:56;;;;;;;0.80;0.80;;;;;;;9.27;65.78;97840.50;4927155;28;20139;-91
2024/02/07 08:09:21;;;;;;;0.80;0.80;;;;;;;9.19;65.87;97840.31;4916093;28;20478;-90
2024/02/07 08:11:46;;;;;;;0.70;0.70;;;;;;;9.17;65.88;97844.75;4916588;28;20786;-92
2024/02/07 08:14:12;;;;;;;0.70;0.70;;;;;;;9.17;65.88;97834.09;4912388;28;20068;-92
2024/02/07 08:16:38;;;;;;;0.70;0.70;;;;;;;9.16;65.90;97842.94;4922202;28;20070;-92
2024/02/07 08:19:03;;;;;;;0.80;0.80;;;;;;;9.19;65.40;97837.66;4929687;28;20047;-93
2024/02/07 08:21:30;;;;;;;0.80;0.80;;;;;;;9.21;65.65;97837.72;4911845;28;20123;-91
2024/02/07 08:23:56;;;;;;;0.80;0.80;;;;;;;9.18;66.29;97834.97;4915254;28;20826;-91
2024/02/07 08:26:23;;;;;;;0.80;0.80;;;;;;;9.17;65.85;97839.41;4917761;28;20040;-92
2024/02/07 08:28:49;;;;;;;0.80;0.80;;;;;;;9.21;65.86;97835.06;4916669;28;20048;-92
2024/02/07 08:31:14;;;;;;;0.80;0.80;;;;;;;9.23;66.04;97836.88;4909524;28;20067;-93
2024/02/07 08:33:40;;;;;;;0.70;0.70;;;;;;;9.22;65.57;97829.75;4917416;28;20094;-94
2024/02/07 08:36:08;;;;;;;0.70;0.70;;;;;;;9.17;66.37;97838.53;4916365;28;20198;-92
2024/02/07 08:38:34;;;;;;;0.70;0.70;;;;;;;9.32;65.74;97832.59;4914509;28;20044;-92
2024/02/07 08:41:00;;;;;;;0.80;0.80;;;;;;;9.23;65.80;97823.56;4933810;28;20128;-92
2024/02/07 08:43:25;;;;;;;0.80;0.80;;;;;;;9.29;65.67;97832.53;4930990;28;20047;-92
2024/02/07 08:45:52;;;;;;;0.70;0.70;;;;;;;9.37;65.01;97823.81;4924713;28;20055;-92
2024/02/07 08:48:17;;;;;;;0.80;0.80;;;;;;;9.40;65.27;97815.91;4914891;28;20040;-91
2024/02/07 08:50:42;;;;;;;0.70;0.70;;;;;;;9.46;65.53;97809.81;4917145;28;20207;-91
2024/02/07 08:53:08;;;;;;;0.73;0.73;;;;;;;9.48;65.17;97819.59;4921179;28;20047;-91
2024/02/07 08:55:34;;;;;;;0.80;0.80;;;;;;;9.48;65.32;97805.38;4918582;28;20040;-90
2024/02/07 08:57:59;;;;;;;0.70;0.70;;;;;;;9.43;65.58;97809.72;4913502;28;20074;-90
2024/02/07 09:00:28;;;;;;;0.70;0.70;;;;;;;9.47;65.41;97812.47;4916507;28;20096;-91
2024/02/07 09:02:54;;;;;;;0.70;0.70;;;;;;;9.50;65.18;97816.97;4927878;28;20245;-91
2024/02/07 09:05:20;;;;;;;0.70;0.70;;;;;;;9.55;64.90;97799.31;4915947;28;20044;-91
2024/02/07 09:07:46;;;;;;;0.80;0.80;;;;;;;9.60;64.82;97808.28;4913205;28;20096;-91
2024/02/07 09:10:12;;;;;;;0.80;0.80;;;;;;;9.69;64.64;97818.22;4911970;28;20110;-92
2024/02/07 09:12:38;;;;;;;0.70;0.70;;;;;;;9.69;65.21;97818.22;4964309;28;20063;-91
2024/02/07 09:15:04;;;;;;;0.70;0.70;;;;;;;9.74;64.70;97817.41;4912310;28;20043;-91
2024/02/07 09:17:32;;;;;;;0.70;0.70;;;;;;;9.75;65.10;97797.91;4917282;28;20040;-92
2024/02/07 09:19:58;;;;;;;0.70;0.70;;;;;;;9.82;64.91;97798.91;4916136;28;20047;-91
2024/02/07 09:22:23;;;;;;;0.77;0.77;;;;;;;9.81;64.98;97807.75;4914159;28;20044;-90
2024/02/07 09:24:49;;;;;;;0.70;0.70;;;;;;;9.83;65.19;97807.81;4931870;28;20140;-91
2024/02/07 09:27:14;;;;;;;0.70;0.70;;;;;;;9.78;65.16;97799.72;4921109;28;20041;-92
2024/02/07 09:29:40;;;;;;;0.70;0.70;;;;;;;9.90;65.00;97802.59;4917175;28;20050;-90
2024/02/07 09:32:05;;;;;;;0.70;0.70;;;;;;;10.03;64.43;97793.94;4909824;28;20047;-91
2024/02/07 09:34:31;;;;;;;0.70;0.70;;;;;;;10.21;64.06;97793.34;4926521;28;20040;-90
2024/02/07 09:36:56;;;;;;;0.70;0.70;;;;;;;10.21;64.01;97788.00;4911348;28;20044;-93
2024/02/07 09:39:22;;;;;;;0.70;0.70;;;;;;;10.44;63.46;97788.38;4919010;28;20631;-92
2024/02/07 09:41:49;;;;;;;0.70;0.70;;;;;;;10.22;64.13;97787.13;4913635;28;20032;-94
2024/02/07 09:44:18;;;;;;;0.70;0.70;;;;;;;10.33;64.17;97787.31;4909535;28;20395;-91
2024/02/07 09:46:45;;;;;;;0.60;0.60;;;;;;;10.15;64.58;97784.31;4910249;28;20029;-91
2024/02/07 09:49:13;;;;;;;0.70;0.70;;;;;;;10.11;64.25;97780.75;4909540;28;20050;-91
2024/02/07 09:51:40;;;;;;;0.70;0.70;;;;;;;10.20;64.09;97780.84;4923456;28;20102;-90
2024/02/07 09:54:10;;;;;;;0.77;0.77;;;;;;;10.26;64.61;97781.00;4917737;28;20020;-90
2024/02/07 09:56:37;;;;;;;0.80;0.80;;;;;;;10.14;64.50;97779.88;4915454;28;20040;-92
2024/02/07 09:59:04;;;;;;;0.70;0.70;;;;;;;10.05;65.72;97782.38;4922286;28;20044;-92
2024/02/07 10:01:30;;;;;;;0.80;0.80;;;;;;;9.93;65.22;97786.66;4911018;28;20067;-92
2024/02/07 10:03:57;;;;;;;0.70;0.70;;;;;;;9.96;65.81;97772.47;4917184;28;20064;-93
2024/02/07 10:06:27;;;;;;;0.70;0.70;;;;;;;10.16;65.08;97770.16;4918521;28;20028;-92
2024/02/07 10:08:53;;;;;;;0.80;0.80;;;;;;;10.09;64.72;97757.59;4899305;28;20076;-93
2024/02/07 10:11:21;;;;;;;0.70;0.70;;;;;;;10.13;65.22;97767.44;4907546;28;20036;-93
2024/02/07 10:13:46;;;;;;;0.80;0.80;;;;;;;10.22;64.26;97795.13;4912824;28;20144;-93
2024/02/07 10:16:12;;;;;;;0.80;0.80;;;;;;;10.27;64.38;97779.22;4922616;28;20495;-93
2024/02/07 10:18:38;;;;;;;0.80;0.80;;;;;;;10.43;64.17;97775.91;4922579;28;20078;-92
2024/02/07 10:21:03;;;;;;;0.80;0.80;;;;;;;10.38;64.00;97777.59;4927161;28;20060;-93
2024/02/07 10:23:31;;;;;;;0.80;0.80;;;;;;;10.33;64.09;97770.41;4901551;28;20039;-92
2024/02/07 10:25:57;;;;;;;0.70;0.70;;;;;;;10.48;63.78;97778.63;4927313;28;20044;-93
2024/02/07 10:28:24;;;;;;;0.80;0.80;;;;;;;10.55;63.45;97769.88;4952222;28;20043;-92
2024/02/07 10:30:57;;;;;;;0.80;0.80;;;;;;;10.34;63.88;97778.44;4917338;28;20060;-93
2024/02/07 10:33:22;;;;;;;0.70;0.70;;;;;;;10.47;63.68;97784.84;4900902;28;20067;-92
2024/02/07 10:35:59;;;;;;;0.77;0.77;;;;;;;10.34;63.76;97782.88;4983542;28;20615;-93
2024/02/07 10:38:26;;;;;;;0.60;0.60;;;;;;;10.28;64.26;97765.03;4913581;28;20068;-93
2024/02/07 10:40:51;;;;;;;;;;;;;;;10.18;64.27;97776.38;4921595;28;20060;-93
2024/02/07 10:43:24;;;;;;;0.80;0.80;;;;;;;10.24;64.48;97774.72;4920222;28;19946;-92
2024/02/07 10:46:17;;;;;;;0.70;0.70;;;;;;;10.26;64.61;97780.09;4908495;28;20052;-93
2024/02/07 10:48:43;;;;;;;0.70;0.70;;;;;;;10.28;64.30;97757.03;4908270;28;20024;-91
2024/02/07 10:51:09;;;;;;;0.70;0.70;;;;;;;10.33;65.29;97760.66;4926615;28;20040;-90
2024/02/07 10:53:36;;;;;;;0.80;0.80;;;;;;;10.13;65.92;97754.09;4932697;28;20119;-90
2024/02/07 10:56:06;;;;;;;0.80;0.80;;;;;;;10.15;65.12;97752.34;4912134;28;20108;-91
2024/02/07 10:58:32;;;;;;;0.70;0.70;;;;;;;10.01;66.17;97739.72;4937631;28;20094;-90
2024/02/07 11:00:58;;;;;;;0.70;0.70;;;;;;;9.87;67.23;97748.34;4929700;28;20050;-90
2024/02/07 11:03:29;;;;;;;0.70;0.70;;;;;;;9.67;68.27;97751.59;4940589;28;20071;-90
2024/02/07 11:05:57;;;;;;;0.80;0.80;;;;;;;9.61;68.75;97745.28;4930877;28;20035;-91
2024/02/07 11:08:25;;;;;;;0.70;0.70;;;;;;;9.53;69.45;97750.44;4927607;28;20029;-90
2024/02/07 11:10:52;;;;;;;0.68;0.68;;;;;;;9.42;69.65;97734.28;4932280;28;20404;-92
2024/02/07 11:13:18;;;;;;;0.80;0.80;;;;;;;9.28;70.79;97734.91;4939609;28;20111;-92
2024/02/07 11:15:44;;;;;;;0.77;0.77;;;;;;;9.32;71.44;97715.47;4915081;28;20151;-91
2024/02/07 11:18:11;;;;;;;0.73;0.73;;;;;;;9.36;70.93;97727.97;4941226;28;20087;-91
2024/02/07 11:20:39;;;;;;;0.90;0.90;;;;;;;9.42;70.15;97715.66;4928302;28;20028;-94
2024/02/07 11:23:13;;;;;;;0.80;0.80;;;;;;;9.27;71.30;97714.50;4916848;28;20055;-92
2024/02/07 11:25:41;;;;;;;0.70;0.70;;;;;;;9.27;72.62;97712.75;4919677;28;20129;-92
2024/02/07 11:28:07;;;;;;;0.70;0.70;;;;;;;9.17;72.37;97706.34;4913570;28;20104;-93
2024/02/07 11:30:35;;;;;;;0.80;0.80;;;;;;;9.11;72.27;97703.59;4947828;28;20024;-92
2024/02/07 11:33:11;;;;;;;0.70;0.70;;;;;;;9.10;74.31;97706.19;4929347;28;20087;-91
2024/02/07 11:35:37;;;;;;;0.80;0.80;;;;;;;9.07;75.18;97688.44;4921772;28;20144;-92
2024/02/07 11:38:04;;;;;;;0.70;0.70;;;;;;;9.10;73.17;97685.84;4910377;28;20079;-92
2024/02/07 11:40:41;;;;;;;0.80;0.80;;;;;;;9.10;73.20;97695.56;4921448;28;20087;-92
2024/02/07 11:43:19;;;;;;;0.75;0.75;;;;;;;9.07;73.57;97695.53;4918019;28;20052;-92
2024/02/07 11:45:50;;;;;;;0.70;0.70;;;;;;;9.10;72.98;97685.84;4921321;28;20052;-92
2024/02/07 11:48:23;;;;;;;0.75;0.75;;;;;;;8.98;73.83;97678.50;4919283;28;20037;-93
2024/02/07 11:50:50;;;;;;;0.70;0.70;;;;;;;9.02;74.53;97684.78;4959360;28;20102;-92
2024/02/07 11:53:26;;;;;;;0.80;0.80;;;;;;;9.06;73.93;97670.69;4937647;28;20039;-92
2024/02/07 11:55:51;;;;;;;0.70;0.70;;;;;;;9.09;74.22;97669.81;4904514;29;20119;-91
2024/02/07 11:58:29;;;;;;;0.73;0.73;;;;;;;8.98;74.23;97666.97;4920999;28;20072;-92
2024/02/07 12:00:54;;;;;;;0.80;0.80;;;;;;;8.99;73.67;97667.00;4923408;28;20032;-92
2024/02/07 12:03:20;;;;;;;0.80;0.80;;;;;;;8.93;74.28;97666.00;4920638;28;20051;-93
2024/02/07 12:05:46;;;;;;;0.70;0.70;;;;;;;8.92;74.96;97675.75;4915246;28;20036;-91
2024/02/07 12:08:14;;;;;;;0.80;0.80;;;;;;;8.85;74.66;97665.84;4897462;28;20040;-91
2024/02/07 12:10:57;;;;;;;0.77;0.77;;;;;;;8.70;75.51;97671.78;4912367;28;20043;-91
2024/02/07 12:13:23;;;;;;;0.80;0.80;;;;;;;8.67;76.74;97665.50;4922694;28;20040;-92
2024/02/07 12:15:50;;;;;;;0.80;0.80;;;;;;;8.67;77.03;97666.41;4923646;28;20040;-93
2024/02/07 12:18:16;;;;;;;0.70;0.70;;;;;;;8.70;76.82;97654.94;4911509;28;20044;-93
2024/02/07 12:20:41;;;;;;;0.70;0.70;;;;;;;8.67;76.70;97657.50;4912093;28;20087;-92
2024/02/07 12:23:08;;;;;;;0.70;0.70;;;;;;;8.63;77.80;97653.03;4937265;28;20054;-92
2024/02/07 12:25:33;;;;;;;0.70;0.70;;;;;;;8.56;78.20;97651.09;4910740;28;20028;-92
2024/02/07 12:28:13;;;;;;;0.80;0.80;;;;;;;8.51;78.07;97648.34;4921541;28;20035;-92
2024/02/07 12:30:38;;;;;;;0.80;0.80;;;;;;;8.56;78.72;97651.09;4913292;28;20040;-93
2024/02/07 12:33:04;;;;;;;0.70;0.70;;;;;;;8.61;77.97;97644.13;4908597;28;20119;-94
2024/02/07 12:35:29;;;;;;;0.80;0.80;;;;;;;8.69;77.90;97643.41;4911363;28;20032;-92
2024/02/07 12:37:59;;;;;;;0.70;0.70;;;;;;;8.74;77.25;97635.50;4921396;28;20031;-92
2024/02/07 12:40:29;;;;;;;0.70;0.70;;;;;;;8.75;77.50;97645.28;4927191;28;20036;-93
2024/02/07 12:42:58;;;;;;;0.75;0.75;;;;;;;8.73;78.00;97644.34;4942716;28;20048;-93
2024/02/07 12:45:25;;;;;;;0.70;0.70;;;;;;;8.89;76.22;97634.88;4942731;28;20036;-93
2024/02/07 12:47:51;;;;;;;0.80;0.80;;;;;;;8.85;75.79;97633.03;4935014;28;20057;-92